Time;durP1;ratioP1;P1;durP2;ratioP2;P2;SDS_P1;SDS_P2;PMS_P1;PMS_P2;Temp;Humidity;BMP_temperature;BMP_pressure;BME280_temperature;BME280_humidity;BME280_pressure;Samples;Min_cycle;Max_cycle;Signal;HPM_P1;HPM_P2
2022/08/17 06:03:36;;;;;;;12.37;8.77;;;;;;;23.91;68.30;99845.56;6576620;27;34612;-89
2022/08/17 06:14:25;;;;;;;10.52;8.70;;;;;;;24.71;65.54;99842.69;6581873;27;20072;-90
2022/08/17 06:17:29;;;;;;;10.68;8.10;;;;;;;25.19;62.80;99856.00;6577234;27;35166;-90
2022/08/17 06:20:44;;;;;;;9.80;7.82;;;;;;;25.92;61.09;99852.66;6556160;27;32770;-91
2022/08/17 06:24:09;;;;;;;12.85;7.87;;;;;;;26.37;59.15;99857.16;6576698;27;33664;-89
2022/08/17 06:27:54;;;;;;;8.52;7.20;;;;;;;26.49;58.37;99857.47;6562360;27;33655;-89
2022/08/17 06:31:05;;;;;;;12.65;7.50;;;;;;;26.65;57.53;99859.09;6561391;27;32585;-89
2022/08/17 06:45:18;;;;;;;8.63;7.47;;;;;;;26.54;56.50;99859.62;6578917;27;20291;-90
2022/08/17 06:48:23;;;;;;;8.15;7.05;;;;;;;26.61;56.02;99858.63;6563325;27;34619;-89
2022/08/17 06:51:39;;;;;;;8.40;7.47;;;;;;;27.33;54.24;99856.91;6558013;27;32605;-89
2022/08/17 06:55:01;;;;;;;11.88;7.82;;;;;;;27.89;53.62;99853.25;6560093;27;32620;-89
2022/08/17 07:01:51;;;;;;;11.82;7.35;;;;;;;29.23;49.88;99846.31;6590277;27;20033;-87
2022/08/17 07:04:53;;;;;;;40.55;9.73;;;;;;;28.70;50.09;99844.44;6578542;27;34523;-89
2022/08/17 07:08:03;;;;;;;15.52;7.87;;;;;;;28.40;50.96;99856.56;6590447;27;34823;-88
2022/08/17 07:11:11;;;;;;;;;;;;;;;28.51;51.53;99850.50;6579675;27;33977;-88
2022/08/17 07:17:52;;;;;;;12.20;7.80;;;;;;;29.18;49.87;99857.03;6577811;26;20049;-90
2022/08/17 07:21:08;;;;;;;8.10;7.22;;;;;;;30.01;46.12;99862.88;6580938;27;33950;-90
2022/08/17 07:24:42;;;;;;;9.57;7.40;;;;;;;30.63;44.71;99859.59;6557956;27;32682;-89
2022/08/17 07:28:01;;;;;;;8.65;7.10;;;;;;;29.68;46.01;99855.69;6582534;27;34013;-88
2022/08/17 07:31:12;;;;;;;9.40;7.28;;;;;;;29.55;43.43;99854.66;6562064;27;33734;-89
2022/08/17 07:34:14;;;;;;;14.15;6.78;;;;;;;29.26;46.54;99850.53;6562959;27;33773;-89
2022/08/17 07:37:18;;;;;;;9.57;7.07;;;;;;;29.23;46.01;99857.25;6562678;27;32723;-89
2022/08/17 07:40:34;;;;;;;7.75;6.95;;;;;;;29.43;43.72;99859.94;6580034;26;33616;-89
2022/08/17 07:43:51;;;;;;;8.82;6.85;;;;;;;29.46;44.76;99854.03;6584361;27;34230;-89
2022/08/17 07:50:26;;;;;;;12.70;7.18;;;;;;;30.17;42.89;99853.38;6596094;27;35016;-90
2022/08/17 07:53:30;;;;;;;7.75;6.90;;;;;;;30.34;42.41;99861.06;6583422;27;33883;-90
2022/08/17 07:56:47;;;;;;;11.45;7.20;;;;;;;30.49;42.44;99847.94;6560306;27;32895;-89
2022/08/17 08:00:00;;;;;;;10.77;8.35;;;;;;;31.17;40.27;99853.69;6589007;27;32969;-89
2022/08/17 08:03:19;;;;;;;13.62;9.20;;;;;;;31.17;39.67;99850.13;6596336;27;36433;-90
2022/08/17 08:06:25;;;;;;;10.30;8.88;;;;;;;31.65;38.48;99862.28;6559644;27;35388;-91
2022/08/17 08:09:38;;;;;;;9.13;8.20;;;;;;;31.77;37.55;99858.78;6583914;27;34182;-89
2022/08/17 08:13:13;;;;;;;7.70;6.87;;;;;;;31.58;38.59;99858.78;6586229;27;20035;-88
2022/08/17 08:16:16;;;;;;;7.30;6.30;;;;;;;32.55;36.38;99856.25;6581206;27;34794;-89
2022/08/17 08:19:18;;;;;;;7.78;6.90;;;;;;;33.36;34.57;99849.41;6584008;27;34003;-88
2022/08/17 08:22:37;;;;;;;8.18;7.45;;;;;;;33.65;34.94;99856.91;6580456;27;33912;-89
2022/08/17 08:26:07;;;;;;;14.00;6.65;;;;;;;34.51;33.43;99847.84;6579460;27;35907;-90
2022/08/17 08:29:28;;;;;;;7.40;6.70;;;;;;;35.12;32.42;99848.25;6554334;27;32588;-88
2022/08/17 08:33:02;;;;;;;7.82;6.68;;;;;;;35.27;31.58;99850.41;6588057;27;35341;-89
2022/08/17 08:36:21;;;;;;;7.32;6.62;;;;;;;35.93;30.51;99848.78;6577299;27;33029;-90
2022/08/17 08:40:59;;;;;;;7.30;6.55;;;;;;;36.10;30.30;99855.06;6571981;27;21166;-89
2022/08/17 08:44:19;;;;;;;7.60;6.80;;;;;;;36.37;28.94;99853.38;6524443;27;32891;-88
2022/08/17 08:48:27;;;;;;;7.60;6.70;;;;;;;36.60;29.75;99849.47;6578911;27;34645;-89
2022/08/17 08:52:15;;;;;;;7.60;6.37;;;;;;;37.05;27.89;99844.53;6555773;27;20045;-91
2022/08/17 08:55:57;;;;;;;7.20;6.50;;;;;;;36.84;27.84;99845.53;6560624;27;32876;-88
2022/08/17 08:59:03;;;;;;;6.70;6.10;;;;;;;36.88;28.62;99841.09;6565022;27;35062;-89
2022/08/17 09:02:45;;;;;;;8.63;6.18;;;;;;;36.64;27.99;99834.03;6562072;27;33175;-89
2022/08/17 09:06:10;;;;;;;8.00;6.82;;;;;;;37.18;28.85;99826.69;6581240;27;34748;-89
2022/08/17 09:09:56;;;;;;;9.85;6.37;;;;;;;37.48;27.12;99825.19;6581041;27;35327;-91
2022/08/17 09:13:18;;;;;;;7.30;6.60;;;;;;;37.87;26.51;99826.69;6580920;27;33980;-89
2022/08/17 09:16:31;;;;;;;7.00;6.30;;;;;;;38.59;25.78;99827.13;6560446;27;34483;-88
2022/08/17 09:19:43;;;;;;;9.23;6.30;;;;;;;37.78;25.60;99835.81;6560360;27;33324;-88
2022/08/17 09:22:52;;;;;;;7.45;6.55;;;;;;;37.85;26.54;99830.88;6580016;27;34137;-88
2022/08/17 09:26:04;;;;;;;8.13;6.43;;;;;;;37.99;25.78;99833.91;6579267;27;33943;-88
2022/08/17 09:29:11;;;;;;;8.43;6.12;;;;;;;38.27;25.55;99834.56;6578600;27;35448;-87
2022/08/17 09:32:23;;;;;;;8.30;5.97;;;;;;;39.16;24.65;99821.50;6559393;27;33407;-88
2022/08/17 09:35:33;;;;;;;7.53;5.93;;;;;;;39.24;24.39;99834.78;6578989;27;33835;-88
2022/08/17 09:38:47;;;;;;;9.98;5.82;;;;;;;39.78;23.62;99834.28;6560013;27;33021;-88
2022/08/17 09:42:09;;;;;;;8.32;6.32;;;;;;;39.62;23.48;99826.88;6579636;27;35047;-88
2022/08/17 09:45:27;;;;;;;6.85;5.93;;;;;;;39.17;24.31;99821.19;6579502;27;34053;-88
2022/08/17 09:48:54;;;;;;;7.10;6.40;;;;;;;39.31;24.33;99820.63;6579678;27;34042;-88
2022/08/17 09:52:14;;;;;;;6.78;6.12;;;;;;;39.67;23.03;99812.19;6579908;27;34053;-88
2022/08/17 09:55:21;;;;;;;7.57;6.43;;;;;;;40.56;22.67;99812.41;6565674;27;33300;-89
2022/08/17 09:58:51;;;;;;;8.27;6.00;;;;;;;40.17;23.02;99816.88;6582325;27;33744;-88
2022/08/17 10:02:09;;;;;;;8.70;6.35;;;;;;;40.87;22.30;99814.91;6579719;27;33794;-88
2022/08/17 10:05:46;;;;;;;6.50;6.00;;;;;;;42.95;20.32;99807.22;6560927;27;33118;-88
2022/08/17 10:08:52;;;;;;;6.03;5.20;;;;;;;44.23;18.27;99814.28;6584543;27;34003;-88
2022/08/17 10:12:16;;;;;;;7.25;6.05;;;;;;;45.69;16.87;99823.16;6581002;27;33666;-88
2022/08/17 10:15:43;;;;;;;7.53;5.55;;;;;;;42.14;19.34;99819.47;6587703;27;35236;-91
2022/08/17 10:19:03;;;;;;;5.57;5.10;;;;;;;42.31;19.01;99821.69;6560734;27;32935;-87
2022/08/17 10:26:11;;;;;;;6.12;5.50;;;;;;;40.91;20.30;99813.19;6579004;27;34352;-88
2022/08/17 10:29:23;;;;;;;5.85;5.35;;;;;;;40.14;21.61;99809.97;6560020;27;32990;-88
2022/08/17 10:32:56;;;;;;;6.43;5.40;;;;;;;40.78;20.51;99808.31;6580235;27;35447;-88
2022/08/17 10:36:01;;;;;;;9.85;6.12;;;;;;;40.03;21.21;99809.19;6597723;27;33703;-89
2022/08/17 10:39:46;;;;;;;6.40;5.68;;;;;;;39.30;22.24;99807.88;6576040;27;33694;-93
2022/08/17 10:42:59;;;;;;;6.25;5.65;;;;;;;39.84;21.08;99808.19;6572244;27;34511;-89
2022/08/17 10:46:05;;;;;;;5.80;5.30;;;;;;;41.96;19.21;99804.41;6580535;27;34500;-89
2022/08/17 10:49:46;;;;;;;7.15;5.18;;;;;;;44.64;16.73;99809.63;6561558;27;33563;-89
2022/08/17 10:52:49;;;;;;;5.32;4.82;;;;;;;44.43;16.56;99821.31;6560868;27;32454;-89
2022/08/17 10:56:11;;;;;;;7.53;6.22;;;;;;;42.38;18.16;99808.19;6561435;27;32449;-88
2022/08/17 10:59:35;;;;;;;5.35;4.90;;;;;;;40.26;20.41;99817.09;6580309;27;33905;-88
2022/08/17 11:02:51;;;;;;;4.78;4.37;;;;;;;39.52;20.90;99809.47;6580222;27;33949;-89
2022/08/17 11:06:05;;;;;;;4.90;4.50;;;;;;;38.85;21.46;99796.63;6560996;27;32988;-89
2022/08/17 11:09:13;;;;;;;9.60;4.90;;;;;;;38.69;20.99;99793.84;6580654;27;34033;-92
2022/08/17 11:12:19;;;;;;;;;;;;;;;38.75;21.22;99794.69;6584035;27;33882;-89
2022/08/17 11:15:37;;;;;;;4.45;4.05;;;;;;;39.08;20.91;99800.72;6563061;27;35182;-89
2022/08/17 11:19:21;;;;;;;4.50;4.20;;;;;;;39.53;19.58;99797.25;6582102;27;34991;-88
2022/08/17 11:22:29;;;;;;;4.78;4.40;;;;;;;41.49;17.70;99805.03;6563626;27;32603;-88
2022/08/17 11:25:38;;;;;;;6.40;4.50;;;;;;;40.47;18.78;99800.28;6581995;27;34172;-88
2022/08/17 11:28:51;;;;;;;4.80;4.40;;;;;;;38.07;20.67;99794.69;6561796;27;32999;-88
2022/08/17 11:32:12;;;;;;;5.03;4.53;;;;;;;37.80;21.13;99789.34;6581828;27;33921;-88
2022/08/17 11:35:19;;;;;;;4.60;4.25;;;;;;;37.91;21.38;99784.66;6591921;27;34540;-88
2022/08/17 11:38:48;;;;;;;4.85;4.28;;;;;;;37.71;21.01;99781.56;6597042;27;35258;-88
2022/08/17 11:42:16;;;;;;;4.32;4.03;;;;;;;37.41;20.83;99768.44;6566836;27;33008;-87
2022/08/17 11:45:34;;;;;;;4.50;4.10;;;;;;;37.00;22.01;99769.88;6580707;27;34043;-88
2022/08/17 11:52:12;;;;;;;3.97;3.67;;;;;;;36.96;22.29;99771.53;6559370;27;32795;-87
2022/08/17 11:55:31;;;;;;;5.82;4.20;;;;;;;37.10;21.72;99766.38;6560761;27;32610;-87
2022/08/17 11:58:43;;;;;;;8.00;4.32;;;;;;;37.20;21.48;99773.91;6560729;27;32435;-87
2022/08/17 12:01:55;;;;;;;6.55;4.10;;;;;;;36.34;22.77;99765.56;6580302;27;33651;-88
2022/08/17 12:05:13;;;;;;;4.87;4.40;;;;;;;35.95;23.30;99769.34;6560086;27;33721;-87
2022/08/17 12:08:20;;;;;;;5.85;4.22;;;;;;;36.04;22.88;99769.69;6560115;27;33178;-87
2022/08/17 12:11:31;;;;;;;8.43;4.00;;;;;;;36.86;22.53;99758.50;6560405;27;33003;-87
2022/08/17 12:14:58;;;;;;;4.43;3.87;;;;;;;36.63;21.75;99760.56;6579570;27;34485;-92
2022/08/17 12:18:27;;;;;;;4.37;3.83;;;;;;;36.94;21.43;99751.63;6559655;27;34277;-88
2022/08/17 12:21:42;;;;;;;4.45;4.15;;;;;;;36.32;21.83;99756.72;6579733;27;34648;-88
2022/08/17 12:24:58;;;;;;;4.40;4.00;;;;;;;35.80;23.01;99750.69;6559630;27;32597;-88
2022/08/17 12:28:01;;;;;;;8.32;4.30;;;;;;;35.91;22.42;99744.19;6579436;27;34390;-87
2022/08/17 12:31:29;;;;;;;4.50;4.10;;;;;;;35.52;23.49;99739.63;6559858;27;32582;-88
2022/08/17 12:34:39;;;;;;;6.00;4.10;;;;;;;35.95;23.27;99730.72;6579702;27;34374;-88
2022/08/17 12:37:45;;;;;;;4.85;4.35;;;;;;;36.45;22.16;99742.44;6559819;27;34016;-88
2022/08/17 12:40:54;;;;;;;5.45;4.12;;;;;;;35.99;23.66;99740.94;6581026;27;34007;-88
2022/08/17 12:44:05;;;;;;;5.65;3.97;;;;;;;35.26;23.62;99741.25;6581247;27;34701;-88
2022/08/17 12:47:16;;;;;;;5.43;4.35;;;;;;;35.19;23.79;99739.50;6560911;27;33975;-88
2022/08/17 12:50:25;;;;;;;5.05;4.55;;;;;;;35.40;24.18;99734.25;6581065;27;34269;-88
2022/08/17 12:53:34;;;;;;;6.57;4.37;;;;;;;35.26;24.08;99733.81;6583407;27;34020;-87
2022/08/17 12:56:38;;;;;;;6.18;4.43;;;;;;;35.48;23.82;99728.28;6581687;27;34124;-88
2022/08/17 12:59:44;;;;;;;4.82;4.12;;;;;;;35.55;23.83;99736.34;6580335;27;34806;-91
2022/08/17 13:03:14;;;;;;;4.85;4.00;;;;;;;35.27;23.85;99723.62;6562342;27;32334;-92
2022/08/17 13:06:27;;;;;;;;;;;;;;;34.69;24.70;99716.53;6581505;27;33948;-88
2022/08/17 13:09:30;;;;;;;6.07;4.30;;;;;;;34.04;26.03;99727.03;6577531;27;33684;-88
2022/08/17 13:12:41;;;;;;;4.15;3.85;;;;;;;34.16;25.42;99721.44;6597593;27;34422;-88
2022/08/17 13:16:00;;;;;;;6.75;4.07;;;;;;;34.58;24.56;99717.47;6587192;27;34540;-88
2022/08/17 13:19:14;;;;;;;4.47;4.07;;;;;;;35.15;23.84;99724.56;6562430;27;32978;-88
2022/08/17 13:22:22;;;;;;;4.95;4.05;;;;;;;35.43;23.82;99724.63;6582069;27;34157;-88
2022/08/17 13:25:26;;;;;;;6.82;4.07;;;;;;;35.16;23.25;99722.66;6561585;27;32450;-88
2022/08/17 13:28:31;;;;;;;6.22;3.90;;;;;;;34.25;25.28;99722.69;6581875;27;34048;-88
2022/08/17 13:31:40;;;;;;;4.97;4.55;;;;;;;34.06;25.85;99716.59;6588007;27;35304;-88
2022/08/17 13:34:56;;;;;;;5.85;4.28;;;;;;;34.13;25.40;99717.25;6573352;27;32388;-88
2022/08/17 13:38:46;;;;;;;5.12;4.18;;;;;;;33.99;25.68;99716.75;6576315;27;32719;-88
2022/08/17 13:41:51;;;;;;;4.62;4.20;;;;;;;34.30;25.37;99709.03;6562728;27;33129;-88
2022/08/17 13:44:54;;;;;;;6.60;4.12;;;;;;;34.90;24.84;99700.28;6563902;27;32214;-88
2022/08/17 13:48:15;;;;;;;7.70;4.10;;;;;;;35.20;23.90;99705.34;6586239;27;34702;-88
2022/08/17 13:51:42;;;;;;;4.25;3.90;;;;;;;35.23;24.04;99703.19;6576890;27;34137;-88
2022/08/17 13:54:50;;;;;;;6.90;4.15;;;;;;;35.52;23.59;99697.41;6571289;27;35453;-89
2022/08/17 13:57:57;;;;;;;5.97;4.30;;;;;;;35.13;23.70;99709.41;6580999;27;34067;-89
2022/08/17 14:01:29;;;;;;;4.47;3.90;;;;;;;35.03;24.19;99705.41;6560487;27;32407;-88
2022/08/17 14:04:33;;;;;;;5.25;4.20;;;;;;;35.38;24.65;99708.88;6580216;27;34051;-88
2022/08/17 14:07:39;;;;;;;4.15;3.78;;;;;;;35.38;23.91;99717.13;6579266;27;35402;-88
2022/08/17 14:10:56;;;;;;;5.73;3.83;;;;;;;35.01;24.48;99707.59;6560185;27;32073;-88
2022/08/17 14:13:59;;;;;;;3.72;3.42;;;;;;;34.72;24.76;99707.75;6594237;27;34141;-88
2022/08/17 14:17:03;;;;;;;4.35;3.95;;;;;;;34.39;24.56;99696.50;6596669;27;34476;-88
2022/08/17 14:20:09;;;;;;;4.32;4.00;;;;;;;34.57;24.73;99702.84;6583376;27;35353;-88
2022/08/17 14:23:13;;;;;;;5.18;4.25;;;;;;;34.87;23.69;99701.63;6560331;27;32887;-88
2022/08/17 14:26:16;;;;;;;3.80;3.50;;;;;;;34.59;24.03;99695.16;6579451;27;33870;-88
2022/08/17 14:29:21;;;;;;;4.03;3.72;;;;;;;34.94;23.91;99696.75;6579897;27;34191;-88
2022/08/17 14:32:27;;;;;;;3.78;3.42;;;;;;;35.00;23.97;99700.41;6579644;27;34118;-92
2022/08/17 14:35:33;;;;;;;7.53;4.03;;;;;;;34.78;24.10;99694.88;6579548;27;33800;-88
2022/08/17 14:38:36;;;;;;;5.03;3.40;;;;;;;34.91;24.20;99696.41;6560640;27;32393;-88
2022/08/17 14:41:40;;;;;;;4.40;3.30;;;;;;;35.16;23.09;99692.34;6580193;27;34812;-89
2022/08/17 14:44:43;;;;;;;3.95;3.47;;;;;;;35.17;22.93;99696.75;6579984;27;33641;-89
2022/08/17 14:47:46;;;;;;;4.70;3.60;;;;;;;34.99;23.54;99698.72;6579816;27;34311;-88
2022/08/17 14:50:49;;;;;;;6.43;3.70;;;;;;;35.11;23.20;99695.87;6579720;27;34093;-88
2022/08/17 14:53:51;;;;;;;6.90;3.60;;;;;;;35.05;23.96;99691.38;6580590;27;34703;-88
2022/08/17 14:56:54;;;;;;;3.70;3.40;;;;;;;34.93;23.66;99697.84;6560783;27;34505;-88
2022/08/17 15:00:18;;;;;;;7.05;3.53;;;;;;;34.99;23.56;99695.97;6561400;27;33461;-89
2022/08/17 15:03:22;;;;;;;7.22;3.62;;;;;;;34.60;23.98;99696.00;6580832;27;33757;-88
2022/08/17 15:06:25;;;;;;;6.85;3.30;;;;;;;34.48;24.13;99696.09;6562011;27;32546;-89
2022/08/17 15:09:27;;;;;;;6.47;3.80;;;;;;;34.34;24.09;99693.66;6581380;27;33710;-88
2022/08/17 15:12:33;;;;;;;5.40;3.83;;;;;;;34.12;23.89;99690.84;6581742;27;33869;-89
2022/08/17 15:15:36;;;;;;;4.18;3.75;;;;;;;34.20;23.79;99693.19;6562163;27;32404;-89
2022/08/17 15:18:40;;;;;;;3.80;3.42;;;;;;;34.51;23.57;99696.41;6562033;27;33493;-89
2022/08/17 15:21:45;;;;;;;6.22;3.65;;;;;;;34.38;23.95;99691.22;6592000;27;34283;-89
2022/08/17 15:24:48;;;;;;;5.32;3.83;;;;;;;34.03;23.87;99689.56;6578024;27;32679;-89
